Time;durP1;ratioP1;P1;durP2;ratioP2;P2;SDS_P1;SDS_P2;PMS_P1;PMS_P2;Temp;Humidity;BMP_temperature;BMP_pressure;BME280_temperature;BME280_humidity;BME280_pressure;Samples;Min_cycle;Max_cycle;Signal;HPM_P1;HPM_P2
2021/06/13 00:02:17;;;;;;;27.38;14.38;;;19.10;85.90;;;;;;5052901;28;20850;-77
2021/06/13 00:04:43;;;;;;;24.23;14.93;;;19.10;85.40;;;;;;5052803;28;20100;-77
2021/06/13 00:07:08;;;;;;;17.02;13.10;;;19.10;85.50;;;;;;5052743;28;20059;-76
2021/06/13 00:09:34;;;;;;;21.45;14.05;;;19.10;85.60;;;;;;5051487;28;20032;-76
2021/06/13 00:12:00;;;;;;;20.08;13.02;;;19.00;85.70;;;;;;5052300;28;20036;-77
2021/06/13 00:14:26;;;;;;;18.50;12.95;;;19.00;85.90;;;;;;5051148;28;20383;-76
2021/06/13 00:16:52;;;;;;;21.38;14.68;;;19.00;85.90;;;;;;5052592;28;20029;-77
2021/06/13 00:19:18;;;;;;;51.53;45.78;;;19.00;85.90;;;;;;5052330;28;20013;-77
2021/06/13 00:21:44;;;;;;;39.65;30.65;;;19.00;85.90;;;;;;5052563;28;20035;-76
2021/06/13 00:24:11;;;;;;;28.42;23.38;;;19.00;86.10;;;;;;5052817;28;20025;-76
2021/06/13 00:26:37;;;;;;;21.95;16.00;;;18.90;86.10;;;;;;5052195;28;20028;-77
2021/06/13 00:29:03;;;;;;;20.80;14.75;;;18.90;86.20;;;;;;5053714;28;20028;-76
2021/06/13 00:31:29;;;;;;;21.83;15.15;;;18.90;86.30;;;;;;5053110;28;20539;-76
2021/06/13 00:33:55;;;;;;;16.63;12.95;;;18.80;86.30;;;;;;5052861;28;20144;-76
2021/06/13 00:36:21;;;;;;;21.40;12.65;;;18.80;86.40;;;;;;5052236;28;20021;-77
2021/06/13 00:38:47;;;;;;;17.42;11.80;;;18.80;86.40;;;;;;5053172;28;20055;-77
2021/06/13 00:41:23;;;;;;;15.07;11.93;;;18.80;86.50;;;;;;5053263;28;20021;-77
2021/06/13 00:43:49;;;;;;;14.57;10.90;;;18.80;86.50;;;;;;5053129;28;20052;-77
2021/06/13 00:46:15;;;;;;;14.02;11.02;;;18.80;86.50;;;;;;5052206;28;20103;-77
2021/06/13 00:48:40;;;;;;;14.45;10.80;;;18.70;86.50;;;;;;5051948;28;20379;-77
2021/06/13 00:51:06;;;;;;;15.70;11.07;;;18.70;86.50;;;;;;5051831;28;20056;-77
2021/06/13 00:53:33;;;;;;;21.65;10.65;;;18.70;86.50;;;;;;5051965;28;20029;-77
2021/06/13 00:55:59;;;;;;;16.33;10.63;;;18.70;86.60;;;;;;5051933;28;20017;-77
2021/06/13 00:58:25;;;;;;;15.98;9.90;;;18.70;86.60;;;;;;5051772;28;20444;-77
2021/06/13 01:00:51;;;;;;;15.57;9.77;;;18.60;86.50;;;;;;5051863;28;20534;-76
2021/06/13 01:03:17;;;;;;;14.82;10.18;;;18.60;86.50;;;;;;5051911;28;20021;-78
2021/06/13 01:05:43;;;;;;;16.67;9.88;;;18.60;86.50;;;;;;5052068;28;20383;-78
2021/06/13 01:08:22;;;;;;;16.95;10.32;;;18.50;86.50;;;;;;5052370;28;20029;-78
2021/06/13 01:10:53;;;;;;;18.13;10.82;;;18.50;86.60;;;;;;5052482;28;20511;-78
2021/06/13 01:13:49;;;;;;;19.60;10.57;;;18.50;86.60;;;;;;5052290;28;20440;-78
2021/06/13 01:16:30;;;;;;;19.90;10.95;;;18.50;86.70;;;;;;5040598;28;20037;-77
2021/06/13 01:19:26;;;;;;;17.40;9.95;;;18.40;86.80;;;;;;5050766;28;20137;-78
2021/06/13 01:22:13;;;;;;;16.70;10.68;;;18.40;86.80;;;;;;5050690;28;20048;-78
2021/06/13 01:25:01;;;;;;;15.95;11.20;;;18.40;86.90;;;;;;5054386;28;20051;-78
2021/06/13 01:28:04;;;;;;;46.17;31.35;;;18.30;87.00;;;;;;5055854;28;20032;-78
2021/06/13 01:30:32;;;;;;;25.48;16.25;;;18.30;87.20;;;;;;5054789;28;20036;-78
2021/06/13 01:33:09;;;;;;;23.42;16.48;;;18.30;87.30;;;;;;5055811;28;20484;-78
2021/06/13 01:35:35;;;;;;;21.73;14.15;;;18.30;87.40;;;;;;5054706;28;20032;-79
2021/06/13 01:38:03;;;;;;;20.10;14.75;;;18.30;87.40;;;;;;5055832;28;20040;-78
2021/06/13 01:40:31;;;;;;;19.85;12.65;;;18.30;87.50;;;;;;5055993;28;20102;-78
2021/06/13 01:42:58;;;;;;;16.33;12.93;;;18.30;87.60;;;;;;5055799;28;20031;-78
2021/06/13 01:45:29;;;;;;;22.15;12.18;;;18.30;87.60;;;;;;5056283;28;20024;-78
2021/06/13 01:47:55;;;;;;;17.48;11.27;;;18.30;87.70;;;;;;5055553;28;20541;-77
2021/06/13 01:50:25;;;;;;;19.27;11.18;;;18.30;87.60;;;;;;5055323;28;20068;-78
2021/06/13 01:52:52;;;;;;;16.13;11.00;;;18.30;87.70;;;;;;5055086;28;20060;-77
2021/06/13 01:55:21;;;;;;;11.85;10.07;;;18.30;87.70;;;;;;5055207;28;20029;-77
2021/06/13 01:57:48;;;;;;;17.05;9.85;;;18.30;87.80;;;;;;5054473;28;20860;-80
2021/06/13 02:00:16;;;;;;;13.70;9.68;;;18.30;87.70;;;;;;5055833;28;20029;-80
2021/06/13 02:02:50;;;;;;;16.35;9.68;;;18.30;87.70;;;;;;5055580;28;20031;-80
2021/06/13 02:05:18;;;;;;;15.63;10.27;;;18.40;88.30;;;;;;5055294;28;20013;-80
2021/06/13 02:07:45;;;;;;;16.15;9.55;;;18.70;88.70;;;;;;5055256;28;20032;-80
2021/06/13 02:10:16;;;;;;;12.73;8.95;;;19.00;88.00;;;;;;5055407;28;20021;-79
2021/06/13 02:12:43;;;;;;;12.30;7.97;;;19.50;87.00;;;;;;5055322;28;20450;-80
2021/06/13 02:15:11;;;;;;;10.27;8.10;;;20.00;85.70;;;;;;5057638;28;20024;-80
2021/06/13 02:17:41;;;;;;;14.95;8.18;;;20.50;84.00;;;;;;5055659;28;20021;-80
2021/06/13 02:20:10;;;;;;;10.85;7.90;;;21.10;82.00;;;;;;5056316;28;20094;-79
2021/06/13 02:22:36;;;;;;;9.75;7.43;;;21.70;79.90;;;;;;5056023;28;20017;-80
2021/06/13 02:25:04;;;;;;;8.95;7.40;;;22.20;77.90;;;;;;5055465;28;20029;-81
2021/06/13 02:27:31;;;;;;;9.88;6.85;;;22.70;76.00;;;;;;5054083;28;20036;-82
2021/06/13 02:29:59;;;;;;;9.93;6.90;;;23.30;74.20;;;;;;5055015;28;20036;-82
2021/06/13 02:32:28;;;;;;;8.07;6.85;;;23.90;72.30;;;;;;5055725;28;20040;-82
2021/06/13 02:34:54;;;;;;;8.60;6.88;;;24.50;70.50;;;;;;5056126;28;20104;-82
2021/06/13 02:37:21;;;;;;;8.07;6.90;;;25.00;69.20;;;;;;5062110;28;20032;-81
2021/06/13 02:39:47;;;;;;;11.32;6.75;;;25.50;66.90;;;;;;5066438;28;20017;-82
2021/06/13 02:42:13;;;;;;;9.88;6.80;;;26.10;65.50;;;;;;5058291;28;20540;-83
2021/06/13 02:44:39;;;;;;;8.75;6.72;;;26.50;64.10;;;;;;5054854;28;20353;-82
2021/06/13 02:47:05;;;;;;;9.60;6.30;;;27.10;62.80;;;;;;5055823;28;20052;-83
2021/06/13 02:49:30;;;;;;;7.90;7.20;;;27.50;61.40;;;;;;5054724;28;20096;-82
2021/06/13 02:52:17;;;;;;;8.25;6.43;;;28.10;60.20;;;;;;5054720;28;20559;-82
2021/06/13 02:54:44;;;;;;;10.75;6.47;;;28.70;58.50;;;;;;5055725;28;20046;-83
2021/06/13 02:57:27;;;;;;;6.18;5.57;;;29.20;57.70;;;;;;5055307;28;20028;-83
2021/06/13 03:00:07;;;;;;;9.80;6.40;;;29.80;56.10;;;;;;5054934;28;20071;-82
2021/06/13 03:02:39;;;;;;;8.10;6.18;;;30.30;54.70;;;;;;5054334;28;20020;-82
2021/06/13 03:05:07;;;;;;;10.65;6.70;;;30.90;54.00;;;;;;5054164;28;20024;-82
2021/06/13 03:07:33;;;;;;;7.72;6.32;;;31.40;52.90;;;;;;5054046;28;20438;-82
2021/06/13 03:10:01;;;;;;;10.00;6.90;;;31.90;51.90;;;;;;5053893;28;20044;-82
2021/06/13 03:12:28;;;;;;;12.70;7.30;;;32.40;50.90;;;;;;5053775;28;20044;-82
2021/06/13 03:14:55;;;;;;;8.02;6.50;;;32.80;49.90;;;;;;5052748;28;20150;-82
2021/06/13 03:17:23;;;;;;;7.05;6.15;;;33.30;49.10;;;;;;5053726;28;20021;-82
2021/06/13 03:19:50;;;;;;;7.70;6.40;;;33.60;48.20;;;;;;5053823;28;20017;-81
2021/06/13 03:22:16;;;;;;;7.05;5.97;;;34.10;47.70;;;;;;5053799;28;20091;-82
2021/06/13 03:24:44;;;;;;;7.85;6.30;;;34.40;46.90;;;;;;5053854;28;20107;-82
2021/06/13 03:27:10;;;;;;;7.13;6.40;;;34.80;46.20;;;;;;5052235;28;20029;-82
2021/06/13 03:29:39;;;;;;;9.23;6.88;;;35.10;45.50;;;;;;5052154;28;20024;-82
2021/06/13 03:32:08;;;;;;;7.82;6.22;;;35.40;45.10;;;;;;5053910;28;20536;-82
2021/06/13 03:34:37;;;;;;;9.63;6.50;;;35.60;44.70;;;;;;5054344;28;20086;-82
2021/06/13 03:37:04;;;;;;;8.63;6.25;;;35.80;44.30;;;;;;5053605;28;20498;-82
2021/06/13 03:39:32;;;;;;;8.45;6.18;;;36.10;43.90;;;;;;5053562;28;20032;-82
2021/06/13 03:41:59;;;;;;;7.28;6.18;;;36.40;43.50;;;;;;5053482;28;20028;-82
2021/06/13 03:44:26;;;;;;;9.60;6.60;;;36.80;43.20;;;;;;5053182;28;20051;-81
2021/06/13 03:46:53;;;;;;;8.57;6.13;;;37.10;42.80;;;;;;5052818;28;20070;-82
2021/06/13 03:49:20;;;;;;;7.00;6.30;;;37.40;42.40;;;;;;5051994;28;20017;-82
2021/06/13 03:51:46;;;;;;;6.72;5.93;;;37.70;42.00;;;;;;5053326;28;20513;-83
2021/06/13 03:54:12;;;;;;;7.72;6.40;;;38.00;41.60;;;;;;5054222;28;20036;-81
2021/06/13 03:56:51;;;;;;;9.40;5.50;;;38.20;41.30;;;;;;5053119;28;20025;-82
2021/06/13 03:59:22;;;;;;;12.15;5.35;;;38.40;40.80;;;;;;5053258;28;20411;-82
2021/06/13 04:01:48;;;;;;;;;;;38.70;40.80;;;;;;5053520;28;20031;-81
2021/06/13 04:04:17;;;;;;;7.03;5.15;;;38.90;41.50;;;;;;5057894;28;20314;-81
2021/06/13 04:06:46;;;;;;;6.78;5.18;;;39.30;40.40;;;;;;5055409;28;20028;-82
2021/06/13 04:09:14;;;;;;;5.85;5.07;;;39.40;39.80;;;;;;5063180;28;20013;-82
2021/06/13 04:11:42;;;;;;;7.65;5.10;;;39.60;39.50;;;;;;5059814;28;20021;-82
2021/06/13 04:14:11;;;;;;;9.43;5.10;;;39.70;39.10;;;;;;5053120;28;20053;-83
2021/06/13 04:16:41;;;;;;;8.82;5.07;;;39.80;38.90;;;;;;5053990;28;20025;-82
2021/06/13 04:19:09;;;;;;;7.37;4.93;;;40.00;38.70;;;;;;5052363;28;20029;-82
2021/06/13 04:21:38;;;;;;;15.13;4.95;;;40.10;38.60;;;;;;5053980;28;20029;-83
2021/06/13 04:24:05;;;;;;;7.07;4.72;;;40.30;38.30;;;;;;5053582;28;20024;-82
2021/06/13 04:26:33;;;;;;;7.57;4.90;;;40.50;38.10;;;;;;5053811;28;20095;-82
2021/06/13 04:28:59;;;;;;;5.55;4.82;;;40.80;37.90;;;;;;5052757;28;20096;-82
2021/06/13 04:31:29;;;;;;;6.82;4.70;;;41.10;37.60;;;;;;5052917;28;20155;-82
2021/06/13 04:33:55;;;;;;;9.10;5.37;;;41.30;37.20;;;;;;5051075;28;20024;-82
2021/06/13 04:36:22;;;;;;;6.15;4.90;;;41.40;37.10;;;;;;5052378;28;20266;-82
2021/06/13 04:38:48;;;;;;;5.55;4.90;;;41.50;36.90;;;;;;5052536;28;20027;-82
2021/06/13 04:41:14;;;;;;;6.53;4.90;;;41.80;36.80;;;;;;5052646;28;20037;-82
2021/06/13 04:43:40;;;;;;;8.30;5.00;;;42.00;36.50;;;;;;5051491;28;20132;-81
2021/06/13 04:46:09;;;;;;;8.48;4.85;;;42.20;36.40;;;;;;5052376;28;20463;-80
2021/06/13 04:48:35;;;;;;;4.50;4.15;;;42.40;36.00;;;;;;5051977;28;20139;-81
2021/06/13 04:51:04;;;;;;;6.15;4.60;;;42.50;35.80;;;;;;5051857;28;20032;-82
2021/06/13 04:53:52;;;;;;;9.20;4.90;;;42.80;35.60;;;;;;5052088;28;20567;-82
2021/06/13 04:56:33;;;;;;;4.78;4.38;;;42.90;35.40;;;;;;5051828;28;20029;-83
2021/06/13 04:58:59;;;;;;;6.47;4.72;;;43.10;35.20;;;;;;5049931;28;20056;-81
2021/06/13 05:01:25;;;;;;;5.30;4.85;;;43.30;35.10;;;;;;5051881;28;20032;-82
2021/06/13 05:03:52;;;;;;;6.07;4.22;;;43.50;34.80;;;;;;5051602;28;20021;-81
2021/06/13 05:06:18;;;;;;;5.57;4.82;;;43.50;34.60;;;;;;5051703;28;20018;-80
2021/06/13 05:08:43;;;;;;;5.30;4.80;;;43.50;34.50;;;;;;5051762;28;20036;-80
2021/06/13 05:11:10;;;;;;;5.15;4.70;;;43.60;34.50;;;;;;5051551;28;20025;-81
2021/06/13 05:13:36;;;;;;;5.45;4.10;;;43.80;34.50;;;;;;5051864;28;20031;-82
2021/06/13 05:16:02;;;;;;;5.97;4.50;;;43.80;34.50;;;;;;5051937;28;20055;-82
2021/06/13 05:18:28;;;;;;;7.43;5.38;;;43.90;34.50;;;;;;5052137;28;20082;-83
2021/06/13 05:20:53;;;;;;;6.32;4.57;;;44.00;34.20;;;;;;5053493;28;20025;-82
2021/06/13 05:23:21;;;;;;;7.18;4.60;;;44.20;34.10;;;;;;5052844;28;20021;-82
2021/06/13 05:25:48;;;;;;;10.88;4.90;;;44.40;34.00;;;;;;5051964;28;20154;-82
2021/06/13 05:28:14;;;;;;;5.10;4.60;;;44.60;34.00;;;;;;5051686;28;20029;-82
2021/06/13 05:30:40;;;;;;;6.65;4.40;;;44.70;33.80;;;;;;5051942;28;20025;-82
2021/06/13 05:33:06;;;;;;;5.35;4.40;;;45.00;33.70;;;;;;5048512;28;20087;-82
2021/06/13 05:35:33;;;;;;;4.97;4.50;;;45.20;33.80;;;;;;5039457;28;20029;-82
2021/06/13 05:37:59;;;;;;;5.00;4.57;;;45.40;33.60;;;;;;5073338;28;20048;-83
2021/06/13 05:40:25;;;;;;;5.32;4.82;;;45.30;33.40;;;;;;5042294;28;20072;-83
2021/06/13 05:42:54;;;;;;;5.70;4.80;;;45.40;33.40;;;;;;5039762;28;20014;-82
2021/06/13 05:45:22;;;;;;;8.55;4.70;;;45.50;33.30;;;;;;5041322;28;20033;-82
2021/06/13 05:47:48;;;;;;;8.18;4.65;;;45.60;33.40;;;;;;5041433;28;20481;-83
2021/06/13 05:50:15;;;;;;;5.20;4.28;;;45.60;33.20;;;;;;5040849;28;20047;-82
2021/06/13 05:52:41;;;;;;;5.20;4.45;;;45.70;33.20;;;;;;5040966;28;20041;-82
2021/06/13 05:55:08;;;;;;;5.93;4.90;;;45.80;33.20;;;;;;5042064;28;20032;-82
2021/06/13 05:57:34;;;;;;;6.07;4.60;;;45.80;33.30;;;;;;5044957;28;20487;-81
2021/06/13 06:00:16;;;;;;;7.97;5.38;;;46.00;33.30;;;;;;5043172;28;20025;-83
2021/06/13 06:02:43;;;;;;;5.03;4.45;;;46.00;33.00;;;;;;5048643;28;20013;-87
2021/06/13 06:05:10;;;;;;;6.20;4.22;;;46.10;33.00;;;;;;5051437;28;20100;-88
2021/06/13 06:07:36;;;;;;;4.82;4.32;;;46.10;32.90;;;;;;5043424;28;20029;-87
2021/06/13 06:10:03;;;;;;;5.72;4.57;;;46.10;32.90;;;;;;5042352;28;20032;-86
2021/06/13 06:12:29;;;;;;;8.45;4.82;;;46.10;32.70;;;;;;5043111;28;20025;-85
2021/06/13 06:14:55;;;;;;;7.10;4.32;;;46.10;32.80;;;;;;5046806;28;20031;-84
2021/06/13 06:17:22;;;;;;;4.93;4.43;;;46.10;32.60;;;;;;5043841;28;20104;-82
2021/06/13 06:19:48;;;;;;;4.88;4.47;;;46.10;32.50;;;;;;5044145;28;20095;-82
2021/06/13 06:22:13;;;;;;;4.82;4.43;;;45.90;32.60;;;;;;5052464;28;20105;-83
2021/06/13 06:24:39;;;;;;;5.30;4.80;;;45.90;32.80;;;;;;5053902;28;20045;-83
2021/06/13 06:27:05;;;;;;;5.15;4.53;;;46.10;33.10;;;;;;5055184;28;20104;-82
2021/06/13 06:29:31;;;;;;;5.57;4.90;;;46.10;32.70;;;;;;5054147;28;20032;-83
2021/06/13 06:31:57;;;;;;;6.07;4.43;;;46.00;32.60;;;;;;5058132;28;20533;-81
2021/06/13 06:34:23;;;;;;;6.15;4.35;;;45.80;32.60;;;;;;5054426;28;20412;-79
2021/06/13 06:36:49;;;;;;;4.47;4.05;;;45.50;32.60;;;;;;5053235;28;20107;-81
2021/06/13 06:39:15;;;;;;;8.52;4.38;;;45.40;32.90;;;;;;5052422;28;20071;-80
2021/06/13 06:41:41;;;;;;;4.45;4.15;;;45.20;32.90;;;;;;5053808;28;20025;-79
2021/06/13 06:44:07;;;;;;;6.03;5.03;;;45.20;32.70;;;;;;5052798;28;20060;-78
2021/06/13 06:46:33;;;;;;;8.20;4.80;;;45.10;32.90;;;;;;5053827;28;20499;-78
2021/06/13 06:48:59;;;;;;;6.03;4.20;;;45.20;33.10;;;;;;5043497;28;20879;-78
2021/06/13 06:51:26;;;;;;;4.68;4.32;;;45.10;33.00;;;;;;5042555;28;20049;-78
2021/06/13 06:53:53;;;;;;;5.05;4.55;;;45.20;33.20;;;;;;5042030;28;20034;-78
2021/06/13 06:56:19;;;;;;;4.85;4.25;;;45.10;33.20;;;;;;5043563;28;20110;-78
2021/06/13 06:58:44;;;;;;;5.28;4.47;;;45.20;33.10;;;;;;5042197;28;20108;-79
2021/06/13 07:01:10;;;;;;;6.93;4.10;;;45.10;33.00;;;;;;5041720;28;20134;-79
2021/06/13 07:03:36;;;;;;;8.25;4.80;;;45.10;32.60;;;;;;5043639;28;20025;-78
2021/06/13 07:06:02;;;;;;;5.32;4.25;;;44.80;32.60;;;;;;5041902;28;20096;-79
2021/06/13 07:08:27;;;;;;;7.22;5.15;;;44.70;32.80;;;;;;5042052;28;20028;-78
2021/06/13 07:10:55;;;;;;;4.78;3.88;;;44.50;32.70;;;;;;5043897;28;20025;-78
2021/06/13 07:13:21;;;;;;;10.45;4.30;;;44.30;32.80;;;;;;5042376;28;20029;-78
2021/06/13 07:15:46;;;;;;;5.38;4.00;;;44.20;32.90;;;;;;5041947;28;20385;-77
2021/06/13 07:18:12;;;;;;;4.63;4.22;;;44.00;33.00;;;;;;5042850;28;20040;-77
2021/06/13 07:20:38;;;;;;;4.40;3.95;;;43.90;33.20;;;;;;5040231;28;20018;-78
2021/06/13 07:23:04;;;;;;;4.20;3.90;;;43.70;33.20;;;;;;5042059;28;20028;-78
2021/06/13 07:25:29;;;;;;;4.82;3.70;;;43.60;33.30;;;;;;5042647;28;20037;-78
2021/06/13 07:27:55;;;;;;;4.30;3.95;;;43.30;32.80;;;;;;5040912;28;20022;-75
2021/06/13 07:30:22;;;;;;;10.60;3.80;;;43.30;33.00;;;;;;5042235;28;20032;-75
2021/06/13 07:32:49;;;;;;;6.60;4.10;;;43.10;33.00;;;;;;5040565;28;20040;-75
2021/06/13 07:35:16;;;;;;;5.57;4.55;;;42.80;33.20;;;;;;5040465;28;20431;-77
2021/06/13 07:37:42;;;;;;;8.82;4.70;;;42.30;33.50;;;;;;5041908;28;20025;-77
2021/06/13 07:40:09;;;;;;;3.85;3.47;;;41.90;33.30;;;;;;5073977;28;20528;-74
2021/06/13 07:42:35;;;;;;;4.00;3.60;;;41.00;32.90;;;;;;5040301;28;20025;-76
2021/06/13 07:45:01;;;;;;;11.27;4.15;;;40.10;33.60;;;;;;5041764;28;20376;-76
2021/06/13 07:47:30;;;;;;;5.05;4.40;;;39.40;34.50;;;;;;5041670;28;20033;-76
2021/06/13 07:49:56;;;;;;;4.60;4.10;;;39.10;34.70;;;;;;5040132;28;20024;-75
2021/06/13 07:52:21;;;;;;;4.78;3.30;;;38.90;35.10;;;;;;5040903;28;20045;-75
2021/06/13 07:54:47;;;;;;;3.90;3.50;;;38.40;35.20;;;;;;5041580;28;20126;-76
2021/06/13 07:57:13;;;;;;;4.95;4.43;;;37.70;35.70;;;;;;5039613;28;20536;-74
2021/06/13 07:59:39;;;;;;;5.68;4.30;;;37.50;36.40;;;;;;5041870;28;20032;-75
2021/06/13 08:02:05;;;;;;;4.28;3.85;;;37.60;36.80;;;;;;5041618;28;20468;-76
2021/06/13 08:04:36;;;;;;;5.60;4.25;;;37.60;36.50;;;;;;5039903;28;20458;-76
2021/06/13 08:07:03;;;;;;;4.57;3.80;;;37.50;36.70;;;;;;5040259;28;20113;-75
2021/06/13 08:09:29;;;;;;;4.70;4.00;;;37.40;37.30;;;;;;5039456;28;20029;-76
2021/06/13 08:11:55;;;;;;;4.60;3.30;;;37.40;37.30;;;;;;5032154;28;20061;-75
2021/06/13 08:14:21;;;;;;;5.07;4.63;;;37.30;37.10;;;;;;5032062;28;20053;-75
2021/06/13 08:16:47;;;;;;;7.00;4.32;;;37.10;37.40;;;;;;5032059;28;20017;-76
2021/06/13 08:19:12;;;;;;;4.25;3.95;;;36.80;37.30;;;;;;5031856;28;20061;-76
2021/06/13 08:21:38;;;;;;;5.32;3.95;;;36.50;37.50;;;;;;5031933;28;20025;-77
2021/06/13 08:24:05;;;;;;;10.70;3.70;;;36.30;37.60;;;;;;5031826;28;20119;-76
2021/06/13 08:26:32;;;;;;;4.15;3.60;;;36.20;37.60;;;;;;5041315;28;20032;-75
2021/06/13 08:29:01;;;;;;;7.30;3.85;;;36.20;38.00;;;;;;5050989;28;20071;-75
2021/06/13 08:31:27;;;;;;;5.20;3.30;;;36.30;37.80;;;;;;5050752;28;20025;-75
2021/06/13 08:33:53;;;;;;;4.32;3.28;;;36.30;37.50;;;;;;5051112;28;20495;-74
2021/06/13 08:36:19;;;;;;;3.97;3.60;;;35.90;37.50;;;;;;5051342;28;20379;-74
2021/06/13 08:38:45;;;;;;;7.80;3.85;;;35.30;38.00;;;;;;5050954;28;20032;-76
2021/06/13 08:41:11;;;;;;;6.00;3.75;;;34.60;38.70;;;;;;5051423;28;20021;-75
2021/06/13 08:43:37;;;;;;;8.45;3.60;;;33.90;39.60;;;;;;5051332;28;20074;-76
2021/06/13 08:46:05;;;;;;;3.58;3.33;;;33.20;40.70;;;;;;5049886;28;20145;-76
2021/06/13 08:48:32;;;;;;;4.45;3.72;;;32.50;41.80;;;;;;5051630;28;20062;-76
2021/06/13 08:50:59;;;;;;;4.25;3.75;;;31.70;43.10;;;;;;5050821;28;20021;-76
2021/06/13 08:53:25;;;;;;;5.63;3.50;;;31.00;44.10;;;;;;5051134;28;20029;-76
2021/06/13 08:55:52;;;;;;;7.05;4.10;;;30.40;44.90;;;;;;5051173;28;20021;-76
2021/06/13 08:58:18;;;;;;;3.40;3.10;;;29.90;45.10;;;;;;5051285;28;20036;-77
2021/06/13 09:00:44;;;;;;;6.45;3.20;;;29.40;45.00;;;;;;5051408;28;20021;-76
2021/06/13 09:03:10;;;;;;;4.72;3.13;;;28.90;45.10;;;;;;5051463;28;20106;-78
2021/06/13 09:05:36;;;;;;;3.50;3.00;;;28.50;45.60;;;;;;5032713;28;20411;-79
2021/06/13 09:08:10;;;;;;;3.15;2.88;;;28.20;46.20;;;;;;5032160;28;20105;-79
2021/06/13 09:10:37;;;;;;;2.88;2.63;;;27.90;46.80;;;;;;5032038;28;20039;-79
2021/06/13 09:13:09;;;;;;;6.13;3.10;;;27.50;46.80;;;;;;5032243;28;20053;-78
2021/06/13 09:15:53;;;;;;;2.72;2.50;;;27.10;46.90;;;;;;5032336;28;20384;-78
2021/06/13 09:18:31;;;;;;;4.85;3.60;;;26.70;46.80;;;;;;5032383;28;20155;-78
2021/06/13 09:20:58;;;;;;;3.28;2.80;;;26.50;47.60;;;;;;5032584;28;20025;-79
2021/06/13 09:23:26;;;;;;;3.63;3.33;;;26.40;48.00;;;;;;5032751;28;20017;-80
2021/06/13 09:26:28;;;;;;;3.38;3.08;;;26.40;48.60;;;;;;5032495;28;20032;-77
2021/06/13 09:28:56;;;;;;;3.33;3.13;;;26.50;49.30;;;;;;5030260;28;20080;-79
2021/06/13 09:31:26;;;;;;;3.63;3.33;;;26.60;49.80;;;;;;5032392;28;20220;-78
2021/06/13 09:33:55;;;;;;;5.68;3.47;;;26.50;50.50;;;;;;5031303;28;20059;-80
2021/06/13 09:36:25;;;;;;;5.40;4.03;;;26.40;52.20;;;;;;5030854;28;20022;-78
2021/06/13 09:39:00;;;;;;;5.15;3.70;;;26.30;52.30;;;;;;5030800;28;20026;-78
2021/06/13 09:41:27;;;;;;;5.47;4.13;;;26.20;53.10;;;;;;5032481;28;20022;-79
2021/06/13 09:44:00;;;;;;;5.28;4.30;;;26.00;53.60;;;;;;5033237;28;20025;-79
2021/06/13 09:46:28;;;;;;;6.47;3.78;;;26.00;54.40;;;;;;5035187;28;20416;-78
2021/06/13 09:49:07;;;;;;;3.83;3.20;;;26.00;54.30;;;;;;5035092;28;20025;-78
2021/06/13 09:51:40;;;;;;;6.32;4.20;;;26.20;54.30;;;;;;5034263;28;20049;-77
2021/06/13 09:54:11;;;;;;;4.82;3.88;;;26.60;53.90;;;;;;5035814;28;20096;-77
2021/06/13 09:56:41;;;;;;;5.97;3.90;;;27.00;53.00;;;;;;5035899;28;20056;-77
2021/06/13 09:59:08;;;;;;;4.63;3.90;;;27.30;52.20;;;;;;5035612;28;20060;-79
2021/06/13 10:01:41;;;;;;;3.95;3.55;;;27.40;51.50;;;;;;5035787;28;20100;-78
2021/06/13 10:04:17;;;;;;;4.47;3.40;;;27.30;51.40;;;;;;5034294;28;20017;-78
2021/06/13 10:06:46;;;;;;;4.80;3.53;;;27.30;51.60;;;;;;5035911;28;20017;-80
2021/06/13 10:09:11;;;;;;;4.63;3.15;;;27.10;51.90;;;;;;5036143;28;20030;-80
2021/06/13 10:11:38;;;;;;;3.33;3.00;;;27.00;52.30;;;;;;5035702;28;20044;-81
2021/06/13 10:14:07;;;;;;;4.38;3.50;;;26.90;52.50;;;;;;5034688;28;20033;-80
2021/06/13 10:16:40;;;;;;;5.38;4.38;;;26.80;53.00;;;;;;5036650;28;20030;-81
2021/06/13 10:19:14;;;;;;;7.28;5.78;;;26.80;53.30;;;;;;5034765;28;20022;-82
2021/06/13 10:21:49;;;;;;;5.40;4.65;;;26.70;53.80;;;;;;5035841;28;20465;-80
2021/06/13 10:24:21;;;;;;;3.72;3.40;;;26.70;53.80;;;;;;5042079;28;20025;-82
2021/06/13 10:26:51;;;;;;;5.57;3.90;;;26.80;53.90;;;;;;5041834;28;20025;-83
2021/06/13 10:29:18;;;;;;;4.28;3.30;;;26.90;54.50;;;;;;5047956;28;20128;-83
2021/06/13 10:31:47;;;;;;;5.90;4.00;;;27.20;54.20;;;;;;5043993;28;20025;-83
2021/06/13 10:34:15;;;;;;;10.45;7.38;;;27.60;53.90;;;;;;5036155;28;20116;-82
2021/06/13 10:36:41;;;;;;;7.97;5.95;;;28.00;53.30;;;;;;5036309;28;20472;-81
2021/06/13 10:39:12;;;;;;;8.13;6.65;;;28.50;52.30;;;;;;5035253;28;20472;-82
2021/06/13 10:41:39;;;;;;;6.32;4.55;;;28.90;51.40;;;;;;5035261;28;20159;-86
2021/06/13 10:44:10;;;;;;;7.95;6.47;;;29.10;50.30;;;;;;5035971;28;20097;-84
2021/06/13 10:46:37;;;;;;;3.40;3.10;;;29.20;49.70;;;;;;5036402;28;20026;-85
2021/06/13 10:49:05;;;;;;;5.50;3.90;;;29.30;49.40;;;;;;5035738;28;20484;-85
2021/06/13 10:51:45;;;;;;;4.75;4.35;;;29.20;49.50;;;;;;5035394;28;20496;-84
2021/06/13 10:54:30;;;;;;;4.85;3.38;;;29.20;49.60;;;;;;5035929;28;20456;-84
2021/06/13 10:57:05;;;;;;;7.10;5.00;;;29.10;49.60;;;;;;5043447;28;20060;-85
2021/06/13 10:59:40;;;;;;;4.47;3.05;;;29.00;49.30;;;;;;5036273;28;20014;-86
2021/06/13 11:02:11;;;;;;;6.95;2.85;;;29.00;49.20;;;;;;5034148;28;20091;-86
2021/06/13 11:04:51;;;;;;;3.53;2.92;;;29.00;49.10;;;;;;5035071;28;20025;-84
2021/06/13 11:07:38;;;;;;;3.25;2.95;;;29.00;49.30;;;;;;5033946;28;20053;-83
2021/06/13 11:10:07;;;;;;;3.58;3.05;;;29.00;48.80;;;;;;5033465;28;20045;-83
2021/06/13 11:12:46;;;;;;;3.67;3.00;;;29.10;48.80;;;;;;5034827;28;20033;-86
2021/06/13 11:15:38;;;;;;;4.15;3.35;;;29.10;48.50;;;;;;5033912;28;20480;-86
2021/06/13 11:18:14;;;;;;;8.10;3.58;;;29.20;48.40;;;;;;5034471;28;20495;-86
2021/06/13 11:23:28;;;;;;;3.60;3.33;;;29.30;48.60;;;;;;5034724;28;20029;-87
2021/06/13 11:25:57;;;;;;;4.65;3.70;;;29.40;48.60;;;;;;5032982;28;20168;-83
2021/06/13 11:28:28;;;;;;;5.07;3.83;;;29.40;48.90;;;;;;5033914;28;20057;-82
2021/06/13 11:30:59;;;;;;;5.23;3.80;;;29.30;50.00;;;;;;5039762;28;20025;-83
2021/06/13 11:34:02;;;;;;;5.78;4.30;;;29.10;50.70;;;;;;5040655;28;20025;-83
2021/06/13 11:36:39;;;;;;;6.50;5.70;;;29.00;51.30;;;;;;5013024;28;20045;-82
2021/06/13 11:39:05;;;;;;;4.95;4.45;;;29.00;51.80;;;;;;5046006;28;20150;-83
2021/06/13 11:41:42;;;;;;;8.93;4.25;;;29.00;52.20;;;;;;5037490;28;20057;-84
2021/06/13 11:44:10;;;;;;;5.95;4.03;;;28.90;52.50;;;;;;5033787;28;20059;-83
2021/06/13 11:46:38;;;;;;;4.43;3.90;;;29.00;52.60;;;;;;5034250;28;20038;-83
2021/06/13 11:49:10;;;;;;;11.88;8.38;;;28.90;52.50;;;;;;5043413;28;20471;-85
2021/06/13 11:51:48;;;;;;;4.65;3.95;;;28.90;52.40;;;;;;5041699;28;20080;-83
2021/06/13 11:54:31;;;;;;;4.03;3.60;;;28.80;52.30;;;;;;5040412;28;20028;-82
2021/06/13 11:57:00;;;;;;;7.90;3.50;;;28.50;52.30;;;;;;5034516;28;20041;-83
2021/06/13 11:59:26;;;;;;;12.20;4.55;;;28.30;52.70;;;;;;5034755;28;20735;-84
2021/06/13 12:01:59;;;;;;;10.90;5.65;;;28.00;54.70;;;;;;5035040;28;20032;-83
2021/06/13 12:04:27;;;;;;;15.63;5.70;;;27.50;55.80;;;;;;5042539;28;20048;-84
2021/06/13 12:06:56;;;;;;;15.50;5.85;;;27.00;57.70;;;;;;5040289;28;20044;-84
2021/06/13 12:09:23;;;;;;;10.77;5.57;;;26.50;59.50;;;;;;5052586;28;20479;-83
2021/06/13 12:11:55;;;;;;;7.38;4.40;;;26.10;60.10;;;;;;5051851;28;20029;-83
2021/06/13 12:14:36;;;;;;;5.75;4.38;;;25.70;60.90;;;;;;5037068;28;20415;-83
2021/06/13 12:17:14;;;;;;;7.32;4.20;;;25.40;62.00;;;;;;5034202;28;20029;-84
2021/06/13 12:20:02;;;;;;;8.05;6.10;;;25.10;63.60;;;;;;5034098;28;20021;-83
2021/06/13 12:23:04;;;;;;;9.60;5.28;;;24.90;65.20;;;;;;5041526;28;20402;-84
2021/06/13 12:28:14;;;;;;;7.20;5.22;;;24.60;66.50;;;;;;5054646;28;20032;-83
2021/06/13 12:30:43;;;;;;;8.02;4.78;;;24.30;67.00;;;;;;5049093;28;20398;-84
2021/06/13 12:33:11;;;;;;;8.20;4.90;;;24.20;67.10;;;;;;5052193;28;20024;-84
2021/06/13 12:35:39;;;;;;;7.00;5.50;;;24.10;67.70;;;;;;5053032;28;20104;-82
2021/06/13 12:38:11;;;;;;;5.35;4.82;;;24.00;68.00;;;;;;5053391;28;20028;-83
2021/06/13 12:40:42;;;;;;;10.13;4.70;;;23.90;68.90;;;;;;5053368;28;20375;-83
2021/06/13 12:43:11;;;;;;;7.72;5.47;;;23.90;68.80;;;;;;5055596;28;20035;-83
2021/06/13 12:45:38;;;;;;;94.97;54.58;;;23.80;69.40;;;;;;5055656;28;20088;-83
2021/06/13 12:48:09;;;;;;;11.13;6.18;;;23.70;69.60;;;;;;5090071;28;20025;-83
2021/06/13 12:50:39;;;;;;;9.15;4.60;;;23.50;70.30;;;;;;5054234;28;20028;-82
2021/06/13 12:53:07;;;;;;;6.15;5.13;;;23.30;70.80;;;;;;5053188;28;20114;-83
2021/06/13 12:55:42;;;;;;;6.50;4.78;;;23.00;71.20;;;;;;5055212;28;20025;-82
2021/06/13 12:58:19;;;;;;;8.32;5.28;;;22.90;72.10;;;;;;5051278;28;20360;-84
2021/06/13 13:00:46;;;;;;;11.55;6.00;;;22.80;73.20;;;;;;5052428;28;20032;-84